createdAt,value
2023-01-12T00:01:06.918Z,100437.44
2023-01-12T00:03:34.503Z,100441.38
2023-01-12T00:06:04.214Z,100439.75
2023-01-12T00:08:32.589Z,100438.46
2023-01-12T00:10:59.949Z,100437.80
2023-01-12T00:13:29.689Z,100446.95
2023-01-12T00:16:20.114Z,100449.39
2023-01-12T00:18:47.913Z,100446.84
2023-01-12T00:21:15.580Z,100446.16
2023-01-12T00:23:43.947Z,100453.98
2023-01-12T00:26:11.867Z,100450.23
2023-01-12T00:28:39.368Z,100451.10
2023-01-12T00:31:08.822Z,100446.69
2023-01-12T00:33:39.831Z,100446.36
2023-01-12T00:36:10.552Z,100445.77
2023-01-12T00:38:38.834Z,100443.52
2023-01-12T00:41:07.828Z,100445.19
2023-01-12T00:43:54.339Z,100444.83
2023-01-12T00:46:34.525Z,100440.09
2023-01-12T00:49:02.168Z,100438.03
2023-01-12T00:51:29.598Z,100440.60
2023-01-12T00:53:56.984Z,100434.30
2023-01-12T00:56:24.716Z,100430.73
2023-01-12T00:58:52.582Z,100430.27
2023-01-12T01:01:21.737Z,100427.42
2023-01-12T01:03:49.550Z,100425.08
2023-01-12T01:06:17.414Z,100427.98
2023-01-12T01:08:45.274Z,100426.23
2023-01-12T01:11:13.194Z,100430.81
2023-01-12T01:13:41.725Z,100434.90
2023-01-12T01:16:09.906Z,100440.40
2023-01-12T01:18:37.667Z,100445.21
2023-01-12T01:21:05.835Z,100450.73
2023-01-12T01:23:34.353Z,100454.42
2023-01-12T01:26:13.547Z,100461.44
2023-01-12T01:28:41.541Z,100458.18
2023-01-12T01:31:14.244Z,100456.39
2023-01-12T01:33:42.780Z,100451.69
2023-01-12T01:36:10.750Z,100453.11
2023-01-12T01:38:38.700Z,100450.61
2023-01-12T01:41:07.231Z,100445.92
2023-01-12T01:43:58.820Z,100449.07
2023-01-12T01:46:49.218Z,100445.20
2023-01-12T01:49:30.386Z,100450.30
2023-01-12T01:52:01.247Z,100441.38
2023-01-12T01:54:29.743Z,100438.41
2023-01-12T01:56:57.371Z,100443.60
2023-01-12T01:59:28.767Z,100441.78
2023-01-12T02:01:57.267Z,100438.96
2023-01-12T02:04:26.209Z,100439.34
2023-01-12T02:06:56.280Z,100437.23
2023-01-12T02:09:27.374Z,100434.15
2023-01-12T02:12:14.292Z,100440.25
2023-01-12T02:15:01.407Z,100439.48
2023-01-12T02:17:39.902Z,100437.36
2023-01-12T02:20:27.433Z,100435.83
2023-01-12T02:23:22.789Z,100434.62
2023-01-12T02:26:01.966Z,100434.69
2023-01-12T02:29:09.050Z,100434.05
2023-01-12T02:31:56.703Z,100436.30
2023-01-12T02:34:33.045Z,100427.86
2023-01-12T02:37:15.247Z,100429.44
2023-01-12T02:39:51.149Z,100418.20
2023-01-12T02:42:41.442Z,100418.95
2023-01-12T02:45:27.793Z,100419.88
2023-01-12T02:48:27.915Z,100414.42
2023-01-12T02:51:00.075Z,100410.91
2023-01-12T02:53:31.440Z,100406.91
2023-01-12T02:56:00.318Z,100404.86
2023-01-12T02:58:28.004Z,100412.19
2023-01-12T03:00:57.392Z,100412.98
2023-01-12T03:03:25.249Z,100412.65
2023-01-12T03:06:00.913Z,100410.57
2023-01-12T03:08:29.691Z,100413.74
2023-01-12T03:11:00.124Z,100415.30
2023-01-12T03:13:29.562Z,100411.39
2023-01-12T03:15:57.281Z,100411.72
2023-01-12T03:18:29.346Z,100414.47
2023-01-12T03:21:03.875Z,100410.53
2023-01-12T03:23:36.498Z,100411.34
2023-01-12T03:26:04.004Z,100407.41
2023-01-12T03:28:34.633Z,100402.08
2023-01-12T03:31:09.729Z,100406.35
2023-01-12T03:33:40.927Z,100397.11
2023-01-12T03:36:40.957Z,100398.00
2023-01-12T03:39:17.401Z,100393.02
2023-01-12T03:41:58.309Z,100391.91
2023-01-12T03:44:43.752Z,100389.52
2023-01-12T03:47:15.153Z,100390.06
2023-01-12T03:49:52.862Z,100393.48
2023-01-12T03:52:20.353Z,100392.22
2023-01-12T03:54:48.227Z,100393.14
2023-01-12T03:57:17.119Z,100383.98
2023-01-12T03:59:44.685Z,100382.24
2023-01-12T04:02:12.963Z,100384.52
2023-01-12T08:19:13.593Z,100240.41
2023-01-12T08:21:46.272Z,100249.31
2023-01-12T08:24:15.281Z,100247.87
2023-01-12T08:26:43.834Z,100245.10
2023-01-12T08:29:17.661Z,100239.42
2023-01-12T08:31:48.063Z,100241.91
2023-01-12T08:34:15.630Z,100242.34
2023-01-12T08:36:44.431Z,100242.94
2023-01-12T08:39:13.107Z,100240.35
2023-01-12T08:41:42.533Z,100239.67
2023-01-12T08:44:11.388Z,100244.05
2023-01-12T08:46:46.804Z,100244.59
2023-01-12T08:49:16.845Z,100247.96
2023-01-12T08:51:45.120Z,100243.41
2023-01-12T08:54:13.754Z,100246.22
2023-01-12T08:56:41.416Z,100246.86
2023-01-12T08:59:09.134Z,100247.21
2023-01-12T09:01:36.912Z,100247.09
2023-01-12T09:04:05.278Z,100249.67
2023-01-12T09:06:37.504Z,100247.31
2023-01-12T09:09:06.900Z,100253.98
2023-01-12T09:11:35.662Z,100251.43
2023-01-12T09:14:03.673Z,100256.05
2023-01-12T09:16:31.964Z,100245.02
2023-01-12T09:18:59.769Z,100246.69
2023-01-12T09:21:28.422Z,100254.23
2023-01-12T09:23:56.396Z,100258.14
2023-01-12T09:26:24.529Z,100259.69
2023-01-12T09:28:52.346Z,100262.27
2023-01-12T09:31:22.774Z,100260.81
2023-01-12T09:33:50.537Z,100262.78
2023-01-12T09:36:20.147Z,100259.30
2023-01-12T09:38:47.920Z,100264.60
2023-01-12T09:41:46.919Z,100266.30
2023-01-12T09:44:50.392Z,100268.63
2023-01-12T09:47:19.894Z,100271.73
2023-01-12T09:50:04.616Z,100263.51
2023-01-12T09:52:48.893Z,100262.77
2023-01-12T09:55:23.970Z,100259.67
2023-01-12T09:58:04.733Z,100262.77
2023-01-12T10:00:32.633Z,100262.07
2023-01-12T10:03:25.514Z,100261.33
2023-01-12T10:05:54.826Z,100257.84
2023-01-12T10:08:46.556Z,100254.31
2023-01-12T10:11:38.856Z,100249.36
2023-01-12T10:14:44.515Z,100256.80
2023-01-12T10:17:51.245Z,100261.20
2023-01-12T10:20:28.831Z,100262.85
2023-01-12T10:23:10.512Z,100258.95
2023-01-12T10:25:44.120Z,100253.80
2023-01-12T10:28:42.592Z,100252.73
2023-01-12T10:31:19.910Z,100251.52
2023-01-12T10:34:07.472Z,100252.09
2023-01-12T10:36:36.409Z,100246.29
2023-01-12T10:39:05.271Z,100247.48
2023-01-12T10:41:34.029Z,100249.28
2023-01-12T10:44:20.280Z,100247.68
2023-01-12T10:47:08.515Z,100250.48
2023-01-12T10:49:36.596Z,100248.65
2023-01-12T10:52:11.591Z,100244.77
2023-01-12T10:54:41.764Z,100242.23
2023-01-12T10:57:22.723Z,100239.71
2023-01-12T11:00:01.021Z,100239.55
2023-01-12T11:02:30.631Z,100237.57
2023-01-12T11:04:58.199Z,100236.17
2023-01-12T11:07:29.654Z,100233.46
2023-01-12T11:10:27.104Z,100227.52
2023-01-12T11:13:03.843Z,100231.63
2023-01-12T11:15:39.552Z,100231.57
2023-01-12T11:18:26.143Z,100232.18
2023-01-12T11:21:13.502Z,100233.26
2023-01-12T11:23:45.522Z,100233.29
2023-01-12T11:26:18.730Z,100229.23
2023-01-12T11:28:48.641Z,100235.65
2023-01-12T11:31:24.281Z,100232.41
2023-01-12T11:33:54.802Z,100229.41
2023-01-12T11:36:31.123Z,100232.65
2023-01-12T11:39:05.188Z,100232.66
2023-01-12T11:41:41.655Z,100238.23
2023-01-12T11:44:14.637Z,100244.80
2023-01-12T11:46:47.028Z,100249.10
2023-01-12T11:49:24.108Z,100250.04
2023-01-12T11:51:56.916Z,100246.30
2023-01-12T11:54:25.859Z,100238.41
2023-01-12T11:57:13.292Z,100241.90
2023-01-12T12:00:00.305Z,100237.02
2023-01-12T12:02:48.581Z,100237.55
2023-01-12T12:05:27.879Z,100232.80
2023-01-12T12:08:17.827Z,100233.12
2023-01-12T12:11:09.279Z,100232.98
2023-01-12T12:14:04.591Z,100234.16
2023-01-12T12:16:38.784Z,100235.34
2023-01-12T12:19:23.364Z,100237.73
2023-01-12T12:21:55.837Z,100229.27
2023-01-12T12:24:52.990Z,100230.71
2023-01-12T12:27:27.104Z,100232.61
2023-01-12T12:30:22.409Z,100236.83
2023-01-12T12:33:07.171Z,100239.98
2023-01-12T12:36:17.441Z,100245.14
2023-01-12T12:38:54.139Z,100246.72
2023-01-12T12:41:43.479Z,100245.08
2023-01-12T12:45:07.434Z,100252.30
2023-01-12T12:47:53.281Z,100253.09
2023-01-12T12:50:21.927Z,100247.20
2023-01-12T12:53:00.956Z,100248.05
2023-01-12T12:55:28.824Z,100239.17
2023-01-12T12:58:04.842Z,100230.48
2023-01-12T13:00:43.863Z,100229.83
2023-01-12T15:34:03.160Z,100155.71
2023-01-12T15:36:30.619Z,100150.21
2023-01-12T15:38:58.282Z,100151.04
2023-01-12T15:41:46.842Z,100155.23
2023-01-12T15:44:19.203Z,100151.92
2023-01-12T15:46:46.824Z,100152.67
2023-01-12T15:49:14.635Z,100149.65
2023-01-12T15:51:43.001Z,100151.75
2023-01-12T15:54:10.664Z,100148.30
2023-01-12T15:56:38.633Z,100145.58
2023-01-12T15:59:06.295Z,100143.84
2023-01-12T16:01:49.939Z,100142.14
2023-01-12T16:04:42.236Z,100140.25
2023-01-12T16:07:10.648Z,100141.04
2023-01-12T16:09:41.201Z,100143.44
2023-01-12T16:12:08.912Z,100144.88
2023-01-12T16:14:36.608Z,100146.00
2023-01-12T16:17:04.889Z,100145.44
2023-01-12T16:19:34.749Z,100145.09
2023-01-12T16:22:03.995Z,100146.90
2023-01-12T16:24:32.610Z,100136.62
2023-01-12T16:27:00.752Z,100135.41
2023-01-12T16:29:28.409Z,100143.92
2023-01-12T16:31:57.123Z,100144.56
2023-01-12T16:34:25.261Z,100149.22
2023-01-12T16:36:53.028Z,100148.95
2023-01-12T16:39:20.481Z,100154.46
2023-01-12T16:41:48.553Z,100159.15
2023-01-12T16:44:16.229Z,100160.83
2023-01-12T16:46:45.308Z,100160.61
2023-01-12T16:49:12.869Z,100162.04
2023-01-12T16:51:40.633Z,100156.11
2023-01-12T16:54:08.500Z,100148.24
2023-01-12T16:56:36.058Z,100147.45
2023-01-12T16:59:03.825Z,100147.63
2023-01-12T17:01:31.540Z,100143.98
2023-01-12T17:04:00.682Z,100141.07
2023-01-12T17:06:29.366Z,100141.63
2023-01-12T17:08:57.294Z,100144.63
2023-01-12T17:11:26.331Z,100138.71
2023-01-12T17:13:55.454Z,100139.20
2023-01-12T17:16:25.096Z,100132.14
2023-01-12T17:18:54.025Z,100136.91
2023-01-12T17:21:23.530Z,100136.73
2023-01-12T17:23:52.625Z,100130.39
2023-01-12T17:26:20.503Z,100129.59
2023-01-12T17:28:49.319Z,100125.72
2023-01-12T17:31:19.011Z,100125.06
2023-01-12T17:33:47.063Z,100121.52
2023-01-12T17:36:14.840Z,100118.58
2023-01-12T17:38:42.820Z,100115.23
2023-01-12T17:41:34.609Z,100112.28
2023-01-12T17:44:04.740Z,100112.87
2023-01-12T17:46:32.419Z,100114.92
2023-01-12T17:49:01.188Z,100116.09
2023-01-12T17:51:28.860Z,100114.21
2023-01-12T17:53:58.043Z,100113.55
2023-01-12T17:56:26.018Z,100114.11
2023-01-12T17:58:53.807Z,100112.53
2023-01-12T18:01:22.459Z,100114.58
2023-01-12T18:03:50.844Z,100115.36
2023-01-12T18:06:26.392Z,100118.08
2023-01-12T18:09:02.243Z,100117.63
2023-01-12T18:11:31.858Z,100114.68
2023-01-12T18:14:00.913Z,100115.44
2023-01-12T18:16:28.812Z,100112.68
2023-01-12T18:18:56.583Z,100108.41
2023-01-12T18:21:26.200Z,100105.09
2023-01-12T18:23:54.452Z,100102.31
2023-01-12T18:26:25.614Z,100101.30
2023-01-12T18:28:57.269Z,100101.72
2023-01-12T18:31:27.193Z,100102.09
2023-01-12T18:34:10.620Z,100101.36
2023-01-12T18:36:39.796Z,100101.58
2023-01-12T18:39:09.614Z,100101.97
2023-01-12T18:41:56.339Z,100100.32
2023-01-12T18:44:24.735Z,100104.71
2023-01-12T18:47:11.229Z,100107.45
2023-01-12T18:49:42.346Z,100105.67
2023-01-12T18:52:29.773Z,100106.26
2023-01-12T18:54:59.071Z,100106.48
2023-01-12T18:57:28.804Z,100104.27
2023-01-12T19:00:04.952Z,100108.27
2023-01-12T19:02:33.043Z,100106.78
2023-01-12T19:05:20.346Z,100099.78
2023-01-12T19:07:57.837Z,100097.98
2023-01-12T19:10:26.203Z,100096.38
2023-01-12T19:13:14.137Z,100094.00
2023-01-12T19:16:00.924Z,100095.01
2023-01-12T19:18:29.025Z,100095.58
2023-01-12T19:21:22.698Z,100105.13
2023-01-12T19:24:08.992Z,100101.21
2023-01-12T19:26:55.692Z,100102.88
2023-01-12T19:29:24.089Z,100102.89
2023-01-12T19:31:52.055Z,100106.29
2023-01-12T19:34:19.705Z,100111.51
2023-01-12T19:36:47.189Z,100112.77
2023-01-12T19:39:15.579Z,100117.92
2023-01-12T19:42:02.349Z,100115.52
2023-01-12T19:44:29.912Z,100117.48
2023-01-12T19:46:57.671Z,100119.66
2023-01-12T19:49:25.659Z,100117.69
2023-01-12T19:51:53.615Z,100115.54
2023-01-12T19:54:21.371Z,100115.68
2023-01-12T19:56:48.931Z,100115.10
2023-01-12T19:59:17.213Z,100117.52
2023-01-12T20:01:44.969Z,100116.61
2023-01-12T20:04:13.043Z,100117.20
2023-01-12T20:06:40.767Z,100117.34
2023-01-12T20:09:08.601Z,100112.57
2023-01-12T20:11:37.216Z,100109.30
2023-01-12T20:14:05.038Z,100102.61
2023-01-12T20:16:34.124Z,100101.73
2023-01-12T20:19:04.471Z,100103.21
2023-01-12T20:21:32.360Z,100100.56
2023-01-12T20:24:00.580Z,100102.30
2023-01-12T20:26:28.124Z,100103.14
2023-01-12T20:28:56.418Z,100096.54
2023-01-12T20:31:24.578Z,100098.64
2023-01-12T20:33:52.562Z,100093.79
2023-01-12T20:36:20.732Z,100092.00
2023-01-12T20:38:51.181Z,100092.50
2023-01-12T20:41:19.231Z,100087.29
2023-01-12T20:43:49.485Z,100087.55
2023-01-12T20:46:19.340Z,100083.98
2023-01-12T20:48:47.645Z,100078.70
2023-01-12T20:51:16.083Z,100080.02
2023-01-12T20:53:43.783Z,100073.24
2023-01-12T20:56:11.556Z,100072.50
2023-01-12T20:58:39.320Z,100074.20
2023-01-12T21:01:09.883Z,100071.33
2023-01-12T21:03:37.760Z,100069.52
2023-01-12T21:06:10.354Z,100069.54
2023-01-12T21:08:39.680Z,100074.11
2023-01-12T21:11:07.963Z,100073.56
2023-01-12T21:13:36.541Z,100067.74
2023-01-12T21:16:05.411Z,100070.42
2023-01-12T21:18:33.809Z,100065.20
2023-01-12T21:21:02.094Z,100072.63
2023-01-12T21:23:29.852Z,100073.16
2023-01-12T21:25:57.925Z,100071.91
2023-01-12T21:28:25.682Z,100073.45
2023-01-12T21:30:54.940Z,100065.64
2023-01-12T21:33:24.099Z,100065.00
2023-01-12T21:35:59.324Z,100063.73
2023-01-12T21:38:28.628Z,100061.36
2023-01-12T21:41:00.375Z,100061.33
2023-01-12T21:43:28.056Z,100056.95
2023-01-12T21:45:57.708Z,100058.15
2023-01-12T21:48:25.465Z,100053.63
2023-01-12T21:50:54.298Z,100052.63
2023-01-12T21:53:22.892Z,100047.06
2023-01-12T21:55:58.585Z,100039.30
2023-01-12T21:58:27.479Z,100038.94
2023-01-12T22:00:55.670Z,100037.13
2023-01-12T22:03:24.817Z,100031.67
2023-01-12T22:05:53.069Z,100033.02
2023-01-12T22:08:21.315Z,100032.40
2023-01-12T22:10:48.915Z,100033.78
2023-01-12T22:13:17.596Z,100035.70
2023-01-12T22:15:45.267Z,100030.11
2023-01-12T22:18:13.327Z,100025.85
2023-01-12T22:20:42.116Z,100021.09
2023-01-12T22:23:12.347Z,100023.77
2023-01-12T22:25:40.505Z,100022.73
2023-01-12T22:28:08.161Z,100027.45
2023-01-12T22:30:35.616Z,100023.88
2023-01-12T22:33:03.279Z,100018.05
2023-01-12T22:35:30.848Z,100015.02
2023-01-12T22:37:58.809Z,100012.11
2023-01-12T22:40:26.677Z,100016.99
2023-01-12T22:43:13.178Z,100013.01
2023-01-12T22:45:40.997Z,100012.38
2023-01-12T22:48:08.463Z,100012.17
2023-01-12T22:50:35.871Z,100013.95
2023-01-12T22:53:03.518Z,100010.92
2023-01-12T22:55:31.896Z,100013.50
2023-01-12T22:57:59.667Z,100014.66
2023-01-12T23:00:27.734Z,100017.48
2023-01-12T23:03:02.362Z,100015.78
2023-01-12T23:05:32.785Z,100010.86
2023-01-12T23:08:00.969Z,100010.10
2023-01-12T23:10:28.734Z,100006.80
2023-01-12T23:13:12.260Z,100004.92
2023-01-12T23:15:45.709Z,100007.23
2023-01-12T23:18:14.609Z,100005.88
2023-01-12T23:20:42.932Z,100004.73
